createdAt,value
2018-07-04T00:01:20.821Z,39.69
2018-07-04T00:06:30.972Z,39.24
2018-07-04T00:11:41.050Z,39.69
2018-07-04T00:16:51.277Z,39.91
2018-07-04T00:22:01.357Z,40.69
2018-07-04T00:27:11.456Z,40.70
2018-07-04T00:32:21.644Z,40.88
2018-07-04T00:37:31.703Z,40.83
2018-07-04T00:42:41.828Z,41.24
2018-07-04T00:47:51.938Z,41.52
2018-07-04T00:53:02.102Z,42.03
2018-07-04T00:58:12.146Z,41.33
2018-07-04T01:03:22.228Z,41.38
2018-07-04T01:08:32.404Z,42.08
2018-07-04T01:13:42.530Z,41.66
2018-07-04T01:18:52.898Z,41.63
2018-07-04T01:24:03.052Z,42.08
2018-07-04T01:29:13.169Z,41.46
2018-07-04T01:34:23.343Z,42.26
2018-07-04T01:39:33.527Z,42.42
2018-07-04T01:44:43.584Z,43.22
2018-07-04T01:49:53.791Z,43.05
2018-07-04T01:55:03.977Z,44.19
2018-07-04T02:00:14.064Z,44.29
2018-07-04T02:05:24.192Z,44.73
2018-07-04T02:10:34.347Z,44.18
2018-07-04T02:15:44.558Z,44.40
2018-07-04T02:20:54.749Z,44.88
2018-07-04T02:26:04.901Z,45.28
2018-07-04T02:31:15.161Z,45.46
2018-07-04T02:36:25.277Z,45.41
2018-07-04T02:41:35.301Z,45.87
2018-07-04T02:46:45.491Z,45.84
2018-07-04T02:51:55.557Z,46.22
2018-07-04T02:57:05.712Z,46.25
2018-07-04T03:02:15.792Z,46.14
2018-07-04T03:07:25.893Z,45.66
2018-07-04T03:12:36.110Z,46.24
2018-07-04T03:17:46.245Z,46.69
2018-07-04T03:22:56.306Z,46.51
2018-07-04T03:28:06.416Z,46.78
2018-07-04T03:33:16.562Z,47.70
2018-07-04T03:38:26.628Z,47.34
2018-07-04T03:43:36.741Z,47.56
2018-07-04T03:48:46.869Z,47.72
2018-07-04T03:53:57.058Z,48.52
2018-07-04T03:59:07.233Z,48.16
2018-07-04T04:04:17.413Z,48.92
2018-07-04T04:09:27.386Z,49.06
2018-07-04T04:14:37.453Z,49.27
2018-07-04T04:19:47.604Z,49.51
2018-07-04T04:24:57.702Z,48.90
2018-07-04T04:30:07.850Z,49.32
2018-07-04T04:35:17.929Z,49.32
2018-07-04T04:40:28.092Z,49.91
2018-07-04T04:45:38.087Z,49.77
2018-07-04T04:50:48.364Z,49.28
2018-07-04T04:55:58.368Z,49.12
2018-07-04T05:01:08.463Z,49.91
2018-07-04T05:06:18.613Z,49.01
2018-07-04T05:11:28.647Z,49.47
2018-07-04T05:16:38.779Z,48.54
2018-07-04T05:21:48.910Z,48.91
2018-07-04T05:26:58.880Z,48.20
2018-07-04T05:32:09.018Z,48.22
2018-07-04T05:37:19.137Z,47.54
2018-07-04T05:42:29.190Z,46.76
2018-07-04T05:47:39.469Z,46.17
2018-07-04T05:52:49.583Z,44.99
2018-07-04T05:57:59.749Z,44.47
2018-07-04T06:03:09.910Z,43.28
2018-07-04T06:08:20.017Z,43.45
2018-07-04T06:13:30.087Z,42.57
2018-07-04T06:18:40.182Z,42.64
2018-07-04T06:23:50.552Z,41.97
2018-07-04T06:29:00.674Z,40.75
2018-07-04T06:34:10.704Z,39.69
2018-07-04T06:39:02.259Z,38.97
2018-07-04T06:43:53.739Z,38.65
2018-07-04T06:48:45.252Z,37.52
2018-07-04T06:53:36.707Z,37.63
2018-07-04T06:58:28.388Z,37.06
2018-07-04T07:03:38.475Z,36.94
2018-07-04T07:08:48.518Z,37.92
2018-07-04T07:13:58.540Z,37.61
2018-07-04T07:19:08.968Z,38.41
2018-07-04T07:24:19.164Z,38.62
2018-07-04T07:29:29.200Z,38.87
2018-07-04T07:34:39.250Z,36.97
2018-07-04T07:39:49.488Z,33.18
2018-07-04T07:44:59.459Z,31.40
2018-07-04T07:50:09.572Z,29.63
2018-07-04T08:00:41.495Z,25.76
2018-07-04T08:05:51.771Z,25.14
2018-07-04T08:11:01.730Z,25.63
2018-07-04T08:16:11.806Z,24.86
2018-07-04T08:21:22.055Z,24.06
2018-07-04T08:26:32.309Z,24.39
2018-07-04T08:31:42.380Z,25.11
2018-07-04T08:36:52.469Z,25.29
2018-07-04T08:42:02.613Z,24.63
2018-07-04T08:47:12.716Z,24.59
2018-07-04T08:52:22.901Z,26.38
2018-07-04T08:57:33.072Z,25.77
2018-07-04T09:02:43.582Z,27.43
2018-07-04T09:07:53.693Z,25.45
2018-07-04T09:13:03.644Z,26.12
2018-07-04T09:18:13.790Z,26.58
2018-07-04T09:23:23.866Z,26.96
2018-07-04T09:28:34.050Z,27.08
2018-07-04T09:33:44.336Z,25.55
2018-07-04T09:38:54.393Z,26.61
2018-07-04T09:44:04.467Z,26.46
2018-07-04T09:49:14.684Z,27.30
2018-07-04T09:54:24.824Z,27.16
2018-07-04T09:59:34.945Z,26.18
2018-07-04T10:04:45.151Z,25.77
2018-07-04T10:09:55.168Z,26.52
2018-07-04T10:15:05.313Z,25.45
2018-07-04T10:20:15.804Z,25.06
2018-07-04T10:25:25.940Z,25.36
2018-07-04T10:30:35.956Z,24.41
2018-07-04T10:35:45.965Z,25.83
2018-07-04T10:40:56.166Z,24.99
2018-07-04T10:46:06.379Z,24.35
2018-07-04T10:51:16.500Z,23.77
2018-07-04T10:56:26.633Z,23.65
2018-07-04T11:01:36.882Z,24.41
2018-07-04T11:06:46.931Z,24.07
2018-07-04T11:11:57.071Z,23.85
2018-07-04T11:17:07.413Z,24.23
2018-07-04T11:22:17.475Z,22.77
2018-07-04T11:27:27.558Z,23.01
2018-07-04T11:32:37.608Z,22.70
2018-07-04T11:37:47.607Z,22.98
2018-07-04T11:42:57.723Z,25.96
2018-07-04T11:47:49.190Z,25.29
2018-07-04T11:52:40.718Z,25.11
2018-07-04T11:57:32.217Z,24.89
2018-07-04T12:02:23.800Z,25.02
2018-07-04T12:07:15.287Z,24.92
2018-07-04T12:12:06.752Z,24.97
2018-07-04T12:16:58.689Z,24.83
2018-07-04T12:21:50.197Z,23.75
2018-07-04T12:26:41.725Z,23.47
2018-07-04T12:31:33.213Z,23.63
2018-07-04T12:36:24.744Z,22.44
2018-07-04T12:41:16.276Z,21.58
2018-07-04T12:46:07.769Z,19.55
2018-07-04T12:50:59.268Z,18.53
2018-07-04T12:56:09.328Z,20.18
2018-07-04T13:01:19.504Z,21.17
2018-07-04T13:06:29.677Z,20.74
2018-07-04T13:11:39.913Z,18.39
2018-07-04T13:16:50.052Z,18.05
2018-07-04T13:22:00.320Z,18.03
2018-07-04T13:27:10.297Z,17.54
2018-07-04T13:32:20.409Z,19.19
2018-07-04T13:37:30.403Z,18.17
2018-07-04T13:42:40.500Z,17.83
2018-07-04T13:47:50.681Z,19.21
2018-07-04T13:53:00.798Z,18.39
2018-07-04T13:58:10.856Z,19.97
2018-07-04T14:03:20.980Z,20.26
2018-07-04T14:08:31.166Z,19.34
2018-07-04T14:13:41.355Z,18.36
2018-07-04T14:18:51.481Z,19.30
2018-07-04T14:24:01.663Z,19.37
2018-07-04T14:29:11.936Z,18.99
2018-07-04T14:34:22.043Z,19.21
2018-07-04T14:39:32.190Z,20.33
2018-07-04T14:44:42.143Z,21.30
2018-07-04T14:49:52.331Z,20.20
2018-07-04T14:55:02.424Z,20.43
2018-07-04T15:00:12.648Z,21.16
2018-07-04T15:05:22.594Z,18.78
2018-07-04T15:10:32.758Z,19.94
2018-07-04T15:15:43.017Z,19.61
2018-07-04T15:20:52.926Z,20.68
2018-07-04T15:26:03.028Z,20.80
2018-07-04T15:31:13.119Z,20.36
2018-07-04T15:36:23.235Z,20.39
2018-07-04T15:41:33.328Z,20.79
2018-07-04T15:46:43.375Z,20.97
2018-07-04T15:51:53.404Z,20.96
2018-07-04T15:57:03.748Z,20.60
2018-07-04T16:02:13.714Z,20.59
2018-07-04T16:07:23.827Z,20.46
2018-07-04T16:12:33.972Z,20.80
2018-07-04T16:17:44.092Z,21.48
2018-07-04T16:22:54.301Z,21.01
2018-07-04T16:28:04.295Z,21.58
2018-07-04T16:33:14.384Z,22.59
2018-07-04T16:38:24.445Z,22.06
2018-07-04T16:43:34.659Z,21.30
2018-07-04T16:48:44.775Z,21.27
2018-07-04T16:53:54.915Z,21.38
2018-07-04T16:59:05.081Z,21.71
2018-07-04T17:04:15.144Z,21.57
2018-07-04T17:09:25.190Z,22.75
2018-07-04T17:14:35.320Z,22.19
2018-07-04T17:19:45.392Z,22.67
2018-07-04T17:24:55.409Z,23.23
2018-07-04T17:30:05.571Z,23.40
2018-07-04T17:35:15.668Z,23.51
2018-07-04T17:40:25.789Z,24.04
2018-07-04T17:45:35.944Z,23.04
2018-07-04T17:50:46.130Z,23.65
2018-07-04T17:55:56.288Z,24.32
2018-07-04T18:01:06.363Z,23.47
2018-07-04T18:06:16.455Z,23.73
2018-07-04T18:11:26.659Z,24.20
2018-07-04T18:16:36.727Z,25.64
2018-07-04T18:21:46.853Z,26.12
2018-07-04T18:26:57.024Z,26.09
2018-07-04T18:32:07.495Z,26.35
2018-07-04T18:37:17.455Z,26.96
2018-07-04T18:42:27.506Z,26.84
2018-07-04T18:47:37.507Z,27.31
2018-07-04T18:52:47.725Z,26.22
2018-07-04T18:57:57.858Z,27.12
2018-07-04T19:03:07.981Z,26.94
2018-07-04T19:08:18.143Z,26.91
2018-07-04T19:13:28.241Z,28.54
2018-07-04T19:18:38.331Z,28.17
2018-07-04T19:23:48.720Z,28.44
2018-07-04T19:28:58.977Z,29.48
2018-07-04T19:34:09.040Z,28.59
2018-07-04T19:39:19.216Z,28.84
2018-07-04T19:44:29.343Z,28.64
2018-07-04T19:49:39.539Z,29.70
2018-07-04T19:54:49.584Z,29.57
2018-07-04T19:59:59.624Z,29.23
2018-07-04T20:05:10.165Z,30.40
2018-07-04T20:10:20.336Z,29.38
2018-07-04T20:15:30.511Z,29.76
2018-07-04T20:20:40.594Z,30.00
2018-07-04T20:25:50.644Z,31.10
2018-07-04T20:31:00.916Z,30.96
2018-07-04T20:36:11.109Z,30.67
2018-07-04T20:41:21.255Z,31.62
2018-07-04T20:46:31.360Z,31.14
2018-07-04T20:51:41.444Z,31.51
2018-07-04T20:56:51.676Z,31.84
2018-07-04T21:02:01.853Z,32.50
2018-07-04T21:07:11.815Z,31.50
2018-07-04T21:12:21.957Z,31.51
2018-07-04T21:17:32.050Z,31.55
2018-07-04T21:22:42.164Z,31.93
2018-07-04T21:27:52.402Z,32.42
2018-07-04T21:33:02.592Z,33.07
2018-07-04T21:38:12.545Z,32.52
2018-07-04T21:43:22.622Z,32.61
2018-07-04T21:48:32.687Z,32.78
2018-07-04T21:53:42.922Z,33.09
2018-07-04T21:58:53.021Z,33.44
2018-07-04T22:04:03.216Z,34.30
2018-07-04T22:09:13.215Z,34.61
2018-07-04T22:14:23.424Z,34.31
2018-07-04T22:19:33.551Z,34.68
2018-07-04T22:24:43.714Z,34.74
2018-07-04T22:29:53.755Z,34.84
2018-07-04T22:35:03.888Z,34.95
2018-07-04T22:40:14.835Z,35.77
2018-07-04T22:45:24.973Z,35.64
2018-07-04T22:50:35.078Z,36.26
2018-07-04T22:55:45.183Z,36.69
2018-07-04T23:00:55.320Z,36.39
2018-07-04T23:06:05.411Z,37.17
2018-07-04T23:11:15.497Z,37.61
2018-07-04T23:16:25.615Z,37.61
2018-07-04T23:21:35.730Z,37.22
2018-07-04T23:26:45.882Z,38.34
2018-07-04T23:31:55.974Z,37.98
2018-07-04T23:37:06.161Z,37.80
2018-07-04T23:42:16.188Z,38.57
2018-07-04T23:47:26.278Z,38.22
2018-07-04T23:52:36.336Z,38.63
2018-07-04T23:57:46.412Z,39.41
